sensor_id;sensor_type;location;lat;lon;timestamp;P1;durP1;ratioP1;P2;durP2;ratioP2
61356;SDS011;47227;46.752;23.576;2024-02-16T00:00:25;9.30;;;5.40;;
61356;SDS011;47227;46.752;23.576;2024-02-16T00:03:14;9.30;;;5.40;;
61356;SDS011;47227;46.752;23.576;2024-02-16T00:05:43;7.50;;;5.30;;
61356;SDS011;47227;46.752;23.576;2024-02-16T00:08:11;8.90;;;5.10;;
61356;SDS011;47227;46.752;23.576;2024-02-16T00:10:41;7.20;;;5.20;;
61356;SDS011;47227;46.752;23.576;2024-02-16T00:13:10;11.00;;;5.30;;
61356;SDS011;47227;46.752;23.576;2024-02-16T00:15:40;7.90;;;5.40;;
61356;SDS011;47227;46.752;23.576;2024-02-16T00:18:08;8.00;;;4.70;;
61356;SDS011;47227;46.752;23.576;2024-02-16T00:20:37;7.40;;;4.70;;
61356;SDS011;47227;46.752;23.576;2024-02-16T00:23:06;7.90;;;4.40;;
61356;SDS011;47227;46.752;23.576;2024-02-16T00:25:34;9.20;;;5.40;;
61356;SDS011;47227;46.752;23.576;2024-02-16T00:28:03;10.20;;;4.80;;
61356;SDS011;47227;46.752;23.576;2024-02-16T00:30:31;9.20;;;5.10;;
61356;SDS011;47227;46.752;23.576;2024-02-16T00:33:00;6.70;;;4.50;;
61356;SDS011;47227;46.752;23.576;2024-02-16T00:35:29;8.20;;;5.70;;
61356;SDS011;47227;46.752;23.576;2024-02-16T00:38:01;6.00;;;4.80;;
61356;SDS011;47227;46.752;23.576;2024-02-16T00:40:29;8.60;;;5.30;;
61356;SDS011;47227;46.752;23.576;2024-02-16T00:43:02;10.10;;;6.00;;
61356;SDS011;47227;46.752;23.576;2024-02-16T00:45:31;8.40;;;5.20;;
61356;SDS011;47227;46.752;23.576;2024-02-16T00:48:00;7.20;;;4.90;;
61356;SDS011;47227;46.752;23.576;2024-02-16T00:50:30;10.70;;;4.90;;
61356;SDS011;47227;46.752;23.576;2024-02-16T00:52:58;6.50;;;4.80;;
61356;SDS011;47227;46.752;23.576;2024-02-16T00:55:28;7.90;;;4.90;;
61356;SDS011;47227;46.752;23.576;2024-02-16T00:57:56;9.30;;;4.90;;
61356;SDS011;47227;46.752;23.576;2024-02-16T01:00:25;7.60;;;4.90;;
61356;SDS011;47227;46.752;23.576;2024-02-16T01:02:54;8.50;;;4.90;;
61356;SDS011;47227;46.752;23.576;2024-02-16T01:05:22;8.40;;;4.80;;
61356;SDS011;47227;46.752;23.576;2024-02-16T01:07:51;6.00;;;4.40;;
61356;SDS011;47227;46.752;23.576;2024-02-16T01:10:20;6.90;;;4.60;;
61356;SDS011;47227;46.752;23.576;2024-02-16T01:12:48;6.60;;;4.30;;
61356;SDS011;47227;46.752;23.576;2024-02-16T01:15:17;8.10;;;4.70;;
61356;SDS011;47227;46.752;23.576;2024-02-16T01:17:45;6.50;;;4.50;;
61356;SDS011;47227;46.752;23.576;2024-02-16T01:20:15;6.40;;;4.50;;
61356;SDS011;47227;46.752;23.576;2024-02-16T01:22:44;9.10;;;5.20;;
61356;SDS011;47227;46.752;23.576;2024-02-16T01:25:12;6.90;;;5.30;;
61356;SDS011;47227;46.752;23.576;2024-02-16T01:27:41;10.40;;;5.70;;
61356;SDS011;47227;46.752;23.576;2024-02-16T01:30:09;7.40;;;5.00;;
61356;SDS011;47227;46.752;23.576;2024-02-16T01:32:39;8.80;;;5.10;;
61356;SDS011;47227;46.752;23.576;2024-02-16T01:35:08;8.40;;;4.90;;
61356;SDS011;47227;46.752;23.576;2024-02-16T01:37:36;8.90;;;5.50;;
61356;SDS011;47227;46.752;23.576;2024-02-16T01:40:06;7.70;;;4.60;;
61356;SDS011;47227;46.752;23.576;2024-02-16T01:42:36;10.60;;;5.80;;
61356;SDS011;47227;46.752;23.576;2024-02-16T01:45:05;9.20;;;6.10;;
61356;SDS011;47227;46.752;23.576;2024-02-16T01:47:34;12.00;;;6.80;;
61356;SDS011;47227;46.752;23.576;2024-02-16T01:50:04;9.60;;;6.20;;
61356;SDS011;47227;46.752;23.576;2024-02-16T01:52:33;9.10;;;5.50;;
61356;SDS011;47227;46.752;23.576;2024-02-16T01:55:04;9.90;;;5.50;;
61356;SDS011;47227;46.752;23.576;2024-02-16T01:57:40;8.30;;;5.30;;
61356;SDS011;47227;46.752;23.576;2024-02-16T02:00:12;9.00;;;5.40;;
61356;SDS011;47227;46.752;23.576;2024-02-16T02:02:44;12.30;;;5.60;;
61356;SDS011;47227;46.752;23.576;2024-02-16T02:05:14;9.30;;;5.40;;
61356;SDS011;47227;46.752;23.576;2024-02-16T02:07:43;9.80;;;6.60;;
61356;SDS011;47227;46.752;23.576;2024-02-16T02:10:12;9.90;;;6.40;;
61356;SDS011;47227;46.752;23.576;2024-02-16T02:12:42;9.70;;;5.30;;
61356;SDS011;47227;46.752;23.576;2024-02-16T02:15:11;7.10;;;4.70;;
61356;SDS011;47227;46.752;23.576;2024-02-16T02:17:40;7.90;;;4.60;;
61356;SDS011;47227;46.752;23.576;2024-02-16T02:20:09;8.50;;;4.70;;
61356;SDS011;47227;46.752;23.576;2024-02-16T02:22:39;6.30;;;4.30;;
61356;SDS011;47227;46.752;23.576;2024-02-16T02:25:08;5.90;;;4.20;;
61356;SDS011;47227;46.752;23.576;2024-02-16T02:27:38;7.30;;;4.50;;
61356;SDS011;47227;46.752;23.576;2024-02-16T02:30:07;6.60;;;3.90;;
61356;SDS011;47227;46.752;23.576;2024-02-16T02:32:36;6.30;;;4.40;;
61356;SDS011;47227;46.752;23.576;2024-02-16T02:35:05;5.30;;;3.70;;
61356;SDS011;47227;46.752;23.576;2024-02-16T02:37:36;7.20;;;4.50;;
61356;SDS011;47227;46.752;23.576;2024-02-16T02:40:05;7.30;;;4.60;;
61356;SDS011;47227;46.752;23.576;2024-02-16T02:42:36;6.00;;;4.40;;
61356;SDS011;47227;46.752;23.576;2024-02-16T02:45:04;6.50;;;4.20;;
61356;SDS011;47227;46.752;23.576;2024-02-16T02:47:34;8.50;;;4.50;;
61356;SDS011;47227;46.752;23.576;2024-02-16T02:50:02;6.70;;;4.30;;
61356;SDS011;47227;46.752;23.576;2024-02-16T02:52:32;7.00;;;4.60;;
61356;SDS011;47227;46.752;23.576;2024-02-16T02:55:00;6.80;;;4.70;;
61356;SDS011;47227;46.752;23.576;2024-02-16T02:57:29;8.80;;;5.00;;
61356;SDS011;47227;46.752;23.576;2024-02-16T03:00:04;8.20;;;4.60;;
61356;SDS011;47227;46.752;23.576;2024-02-16T03:05:03;5.20;;;4.10;;
61356;SDS011;47227;46.752;23.576;2024-02-16T03:07:32;8.10;;;4.80;;
61356;SDS011;47227;46.752;23.576;2024-02-16T03:10:02;11.40;;;6.20;;
61356;SDS011;47227;46.752;23.576;2024-02-16T03:12:31;31.50;;;15.50;;
61356;SDS011;47227;46.752;23.576;2024-02-16T03:15:00;21.80;;;12.60;;
61356;SDS011;47227;46.752;23.576;2024-02-16T03:17:29;17.00;;;9.20;;
61356;SDS011;47227;46.752;23.576;2024-02-16T03:19:58;17.20;;;9.70;;
61356;SDS011;47227;46.752;23.576;2024-02-16T03:22:26;17.00;;;9.50;;
61356;SDS011;47227;46.752;23.576;2024-02-16T03:24:55;12.10;;;7.20;;
61356;SDS011;47227;46.752;23.576;2024-02-16T03:27:24;12.80;;;7.30;;
61356;SDS011;47227;46.752;23.576;2024-02-16T03:29:52;13.80;;;7.80;;
61356;SDS011;47227;46.752;23.576;2024-02-16T03:32:21;16.30;;;9.00;;
61356;SDS011;47227;46.752;23.576;2024-02-16T03:34:49;15.20;;;9.00;;
61356;SDS011;47227;46.752;23.576;2024-02-16T03:37:18;16.90;;;9.00;;
61356;SDS011;47227;46.752;23.576;2024-02-16T03:39:46;24.20;;;10.70;;
61356;SDS011;47227;46.752;23.576;2024-02-16T03:42:15;17.40;;;9.30;;
61356;SDS011;47227;46.752;23.576;2024-02-16T03:44:45;19.90;;;9.70;;
61356;SDS011;47227;46.752;23.576;2024-02-16T03:47:14;20.10;;;8.90;;
61356;SDS011;47227;46.752;23.576;2024-02-16T03:49:42;15.70;;;8.10;;
61356;SDS011;47227;46.752;23.576;2024-02-16T03:52:11;17.80;;;8.70;;
61356;SDS011;47227;46.752;23.576;2024-02-16T03:54:39;15.50;;;8.40;;
61356;SDS011;47227;46.752;23.576;2024-02-16T03:57:08;15.40;;;7.30;;
61356;SDS011;47227;46.752;23.576;2024-02-16T03:59:39;12.00;;;6.70;;
61356;SDS011;47227;46.752;23.576;2024-02-16T04:02:07;13.00;;;6.50;;
61356;SDS011;47227;46.752;23.576;2024-02-16T04:04:36;10.70;;;6.60;;
61356;SDS011;47227;46.752;23.576;2024-02-16T04:07:04;10.70;;;6.50;;
61356;SDS011;47227;46.752;23.576;2024-02-16T04:09:36;10.00;;;6.50;;
61356;SDS011;47227;46.752;23.576;2024-02-16T04:12:05;12.80;;;6.50;;
61356;SDS011;47227;46.752;23.576;2024-02-16T04:14:34;9.60;;;6.10;;
61356;SDS011;47227;46.752;23.576;2024-02-16T04:17:02;7.40;;;5.20;;
61356;SDS011;47227;46.752;23.576;2024-02-16T04:19:31;9.70;;;5.60;;
61356;SDS011;47227;46.752;23.576;2024-02-16T04:22:01;9.00;;;5.60;;
61356;SDS011;47227;46.752;23.576;2024-02-16T04:24:29;11.40;;;6.20;;
61356;SDS011;47227;46.752;23.576;2024-02-16T04:26:58;15.20;;;6.90;;
61356;SDS011;47227;46.752;23.576;2024-02-16T04:29:26;8.70;;;5.80;;
61356;SDS011;47227;46.752;23.576;2024-02-16T04:31:55;10.10;;;6.00;;
61356;SDS011;47227;46.752;23.576;2024-02-16T04:34:23;11.30;;;6.00;;
61356;SDS011;47227;46.752;23.576;2024-02-16T04:36:52;12.70;;;6.60;;
61356;SDS011;47227;46.752;23.576;2024-02-16T04:39:20;18.20;;;8.60;;
61356;SDS011;47227;46.752;23.576;2024-02-16T04:41:48;15.30;;;7.40;;
61356;SDS011;47227;46.752;23.576;2024-02-16T04:44:17;15.60;;;8.10;;
61356;SDS011;47227;46.752;23.576;2024-02-16T04:46:46;22.40;;;9.40;;
61356;SDS011;47227;46.752;23.576;2024-02-16T04:49:14;22.00;;;9.60;;
61356;SDS011;47227;46.752;23.576;2024-02-16T04:51:43;18.90;;;9.60;;
61356;SDS011;47227;46.752;23.576;2024-02-16T04:54:11;19.60;;;9.80;;
61356;SDS011;47227;46.752;23.576;2024-02-16T04:56:40;15.90;;;8.90;;
61356;SDS011;47227;46.752;23.576;2024-02-16T04:59:08;16.20;;;9.60;;
61356;SDS011;47227;46.752;23.576;2024-02-16T05:01:36;17.50;;;8.80;;
61356;SDS011;47227;46.752;23.576;2024-02-16T05:04:06;13.10;;;7.90;;
61356;SDS011;47227;46.752;23.576;2024-02-16T05:06:38;14.80;;;8.70;;
61356;SDS011;47227;46.752;23.576;2024-02-16T05:09:08;20.10;;;10.00;;
61356;SDS011;47227;46.752;23.576;2024-02-16T05:11:37;18.50;;;8.90;;
61356;SDS011;47227;46.752;23.576;2024-02-16T05:14:05;16.40;;;9.10;;
61356;SDS011;47227;46.752;23.576;2024-02-16T05:16:34;25.50;;;10.40;;
61356;SDS011;47227;46.752;23.576;2024-02-16T05:19:02;25.50;;;11.50;;
61356;SDS011;47227;46.752;23.576;2024-02-16T05:21:31;18.50;;;9.70;;
61356;SDS011;47227;46.752;23.576;2024-02-16T05:24:00;27.60;;;12.20;;
61356;SDS011;47227;46.752;23.576;2024-02-16T05:26:28;22.60;;;11.80;;
61356;SDS011;47227;46.752;23.576;2024-02-16T05:28:57;22.60;;;11.50;;
61356;SDS011;47227;46.752;23.576;2024-02-16T05:31:25;24.30;;;11.00;;
61356;SDS011;47227;46.752;23.576;2024-02-16T05:33:54;22.20;;;11.50;;
61356;SDS011;47227;46.752;23.576;2024-02-16T05:36:22;27.80;;;11.90;;
61356;SDS011;47227;46.752;23.576;2024-02-16T05:38:58;20.70;;;12.10;;
61356;SDS011;47227;46.752;23.576;2024-02-16T05:41:37;23.80;;;11.60;;
61356;SDS011;47227;46.752;23.576;2024-02-16T05:44:06;23.70;;;11.60;;
61356;SDS011;47227;46.752;23.576;2024-02-16T05:46:37;21.80;;;12.00;;
61356;SDS011;47227;46.752;23.576;2024-02-16T05:49:06;31.00;;;13.20;;
61356;SDS011;47227;46.752;23.576;2024-02-16T05:51:35;30.40;;;14.10;;
61356;SDS011;47227;46.752;23.576;2024-02-16T05:54:05;34.10;;;16.00;;
61356;SDS011;47227;46.752;23.576;2024-02-16T05:56:33;39.00;;;17.80;;
61356;SDS011;47227;46.752;23.576;2024-02-16T05:59:04;36.70;;;16.80;;
61356;SDS011;47227;46.752;23.576;2024-02-16T06:01:33;39.10;;;19.60;;
61356;SDS011;47227;46.752;23.576;2024-02-16T06:04:02;42.00;;;20.00;;
61356;SDS011;47227;46.752;23.576;2024-02-16T06:06:31;38.90;;;18.60;;
61356;SDS011;47227;46.752;23.576;2024-02-16T06:08:59;29.30;;;14.80;;
61356;SDS011;47227;46.752;23.576;2024-02-16T06:11:28;28.50;;;13.30;;
61356;SDS011;47227;46.752;23.576;2024-02-16T06:13:56;29.30;;;14.00;;
61356;SDS011;47227;46.752;23.576;2024-02-16T06:16:25;36.40;;;13.40;;
61356;SDS011;47227;46.752;23.576;2024-02-16T06:18:53;30.90;;;14.70;;
61356;SDS011;47227;46.752;23.576;2024-02-16T06:21:22;103.30;;;35.30;;
61356;SDS011;47227;46.752;23.576;2024-02-16T06:23:51;98.20;;;30.50;;
61356;SDS011;47227;46.752;23.576;2024-02-16T06:26:19;75.40;;;27.80;;
61356;SDS011;47227;46.752;23.576;2024-02-16T06:28:48;40.30;;;17.40;;
61356;SDS011;47227;46.752;23.576;2024-02-16T06:31:17;40.00;;;17.70;;
61356;SDS011;47227;46.752;23.576;2024-02-16T06:33:45;38.50;;;16.60;;
61356;SDS011;47227;46.752;23.576;2024-02-16T06:36:13;33.80;;;15.40;;
61356;SDS011;47227;46.752;23.576;2024-02-16T06:38:42;27.50;;;12.80;;
61356;SDS011;47227;46.752;23.576;2024-02-16T06:41:12;26.00;;;13.60;;
61356;SDS011;47227;46.752;23.576;2024-02-16T06:43:40;40.30;;;18.90;;
61356;SDS011;47227;46.752;23.576;2024-02-16T06:46:10;26.00;;;15.10;;
61356;SDS011;47227;46.752;23.576;2024-02-16T06:48:39;42.60;;;18.70;;
61356;SDS011;47227;46.752;23.576;2024-02-16T06:51:07;36.60;;;19.10;;
61356;SDS011;47227;46.752;23.576;2024-02-16T06:53:38;39.80;;;19.40;;
61356;SDS011;47227;46.752;23.576;2024-02-16T06:56:07;47.20;;;20.30;;
61356;SDS011;47227;46.752;23.576;2024-02-16T06:58:36;41.20;;;19.30;;
61356;SDS011;47227;46.752;23.576;2024-02-16T07:01:04;43.20;;;18.70;;
61356;SDS011;47227;46.752;23.576;2024-02-16T07:03:33;29.40;;;15.60;;
61356;SDS011;47227;46.752;23.576;2024-02-16T07:06:04;30.70;;;15.50;;
61356;SDS011;47227;46.752;23.576;2024-02-16T07:08:38;29.00;;;15.10;;
61356;SDS011;47227;46.752;23.576;2024-02-16T07:11:06;28.80;;;14.40;;
61356;SDS011;47227;46.752;23.576;2024-02-16T07:13:36;30.30;;;14.30;;
61356;SDS011;47227;46.752;23.576;2024-02-16T07:16:06;28.70;;;14.30;;
61356;SDS011;47227;46.752;23.576;2024-02-16T07:18:35;29.80;;;13.50;;
61356;SDS011;47227;46.752;23.576;2024-02-16T07:21:04;26.30;;;14.20;;
61356;SDS011;47227;46.752;23.576;2024-02-16T07:23:33;31.20;;;15.10;;
61356;SDS011;47227;46.752;23.576;2024-02-16T07:26:01;37.70;;;15.50;;
61356;SDS011;47227;46.752;23.576;2024-02-16T07:28:34;35.80;;;13.40;;
61356;SDS011;47227;46.752;23.576;2024-02-16T07:31:03;30.60;;;14.40;;
61356;SDS011;47227;46.752;23.576;2024-02-16T07:33:32;33.10;;;15.00;;
61356;SDS011;47227;46.752;23.576;2024-02-16T07:36:01;35.90;;;15.10;;
61356;SDS011;47227;46.752;23.576;2024-02-16T07:38:29;35.80;;;15.30;;
61356;SDS011;47227;46.752;23.576;2024-02-16T07:40:57;30.10;;;14.80;;
61356;SDS011;47227;46.752;23.576;2024-02-16T07:43:27;24.10;;;14.20;;
61356;SDS011;47227;46.752;23.576;2024-02-16T07:45:55;41.10;;;15.80;;
61356;SDS011;47227;46.752;23.576;2024-02-16T07:48:24;31.10;;;14.90;;
61356;SDS011;47227;46.752;23.576;2024-02-16T07:50:53;41.90;;;15.90;;
61356;SDS011;47227;46.752;23.576;2024-02-16T07:53:22;33.80;;;13.50;;
61356;SDS011;47227;46.752;23.576;2024-02-16T07:55:51;29.50;;;13.80;;
61356;SDS011;47227;46.752;23.576;2024-02-16T07:58:19;25.80;;;12.90;;
61356;SDS011;47227;46.752;23.576;2024-02-16T08:00:47;30.20;;;12.80;;
61356;SDS011;47227;46.752;23.576;2024-02-16T08:03:16;38.00;;;15.90;;
61356;SDS011;47227;46.752;23.576;2024-02-16T08:05:45;35.10;;;17.40;;
61356;SDS011;47227;46.752;23.576;2024-02-16T08:08:13;34.00;;;16.90;;
61356;SDS011;47227;46.752;23.576;2024-02-16T08:10:42;28.80;;;15.10;;
61356;SDS011;47227;46.752;23.576;2024-02-16T08:13:10;33.40;;;15.90;;
61356;SDS011;47227;46.752;23.576;2024-02-16T08:15:39;33.50;;;16.80;;
61356;SDS011;47227;46.752;23.576;2024-02-16T08:18:07;33.50;;;15.90;;
61356;SDS011;47227;46.752;23.576;2024-02-16T08:20:36;34.70;;;16.20;;
61356;SDS011;47227;46.752;23.576;2024-02-16T08:23:05;31.40;;;17.10;;
61356;SDS011;47227;46.752;23.576;2024-02-16T08:25:33;34.20;;;17.10;;
61356;SDS011;47227;46.752;23.576;2024-02-16T08:28:02;36.70;;;17.40;;
61356;SDS011;47227;46.752;23.576;2024-02-16T08:30:31;33.00;;;17.30;;
61356;SDS011;47227;46.752;23.576;2024-02-16T08:32:59;39.30;;;18.70;;
61356;SDS011;47227;46.752;23.576;2024-02-16T08:35:28;34.80;;;19.50;;
61356;SDS011;47227;46.752;23.576;2024-02-16T08:37:57;44.40;;;20.20;;
61356;SDS011;47227;46.752;23.576;2024-02-16T08:40:26;43.70;;;20.00;;
61356;SDS011;47227;46.752;23.576;2024-02-16T08:42:54;44.30;;;21.10;;
61356;SDS011;47227;46.752;23.576;2024-02-16T08:45:23;42.00;;;20.30;;
61356;SDS011;47227;46.752;23.576;2024-02-16T08:47:51;38.00;;;19.70;;
61356;SDS011;47227;46.752;23.576;2024-02-16T08:50:20;38.00;;;20.60;;
61356;SDS011;47227;46.752;23.576;2024-02-16T08:52:48;44.10;;;20.80;;
61356;SDS011;47227;46.752;23.576;2024-02-16T08:55:17;49.00;;;23.50;;
61356;SDS011;47227;46.752;23.576;2024-02-16T08:57:45;44.40;;;21.70;;
61356;SDS011;47227;46.752;23.576;2024-02-16T09:00:14;46.00;;;23.30;;
61356;SDS011;47227;46.752;23.576;2024-02-16T09:02:44;50.10;;;23.50;;
61356;SDS011;47227;46.752;23.576;2024-02-16T09:05:14;48.90;;;21.60;;
61356;SDS011;47227;46.752;23.576;2024-02-16T09:07:43;38.30;;;20.70;;
61356;SDS011;47227;46.752;23.576;2024-02-16T09:10:12;39.90;;;20.60;;
61356;SDS011;47227;46.752;23.576;2024-02-16T09:12:40;35.90;;;19.20;;
61356;SDS011;47227;46.752;23.576;2024-02-16T09:15:09;46.90;;;20.50;;
61356;SDS011;47227;46.752;23.576;2024-02-16T09:17:38;34.80;;;20.40;;
61356;SDS011;47227;46.752;23.576;2024-02-16T09:20:07;32.90;;;18.60;;
61356;SDS011;47227;46.752;23.576;2024-02-16T09:22:36;40.70;;;19.50;;
61356;SDS011;47227;46.752;23.576;2024-02-16T09:25:05;35.70;;;19.00;;
61356;SDS011;47227;46.752;23.576;2024-02-16T09:27:34;38.00;;;20.20;;
61356;SDS011;47227;46.752;23.576;2024-02-16T09:30:08;37.60;;;19.50;;
61356;SDS011;47227;46.752;23.576;2024-02-16T09:32:39;37.90;;;21.10;;
61356;SDS011;47227;46.752;23.576;2024-02-16T09:35:08;37.70;;;21.20;;
61356;SDS011;47227;46.752;23.576;2024-02-16T09:37:38;48.90;;;21.70;;
61356;SDS011;47227;46.752;23.576;2024-02-16T09:40:07;43.70;;;22.10;;
61356;SDS011;47227;46.752;23.576;2024-02-16T09:42:38;44.00;;;21.90;;
61356;SDS011;47227;46.752;23.576;2024-02-16T09:45:07;40.00;;;22.70;;
61356;SDS011;47227;46.752;23.576;2024-02-16T09:47:38;41.10;;;22.10;;
61356;SDS011;47227;46.752;23.576;2024-02-16T09:50:10;42.20;;;24.30;;
61356;SDS011;47227;46.752;23.576;2024-02-16T09:52:40;52.40;;;28.90;;
61356;SDS011;47227;46.752;23.576;2024-02-16T09:55:10;51.40;;;27.60;;
61356;SDS011;47227;46.752;23.576;2024-02-16T09:57:41;56.40;;;27.50;;
61356;SDS011;47227;46.752;23.576;2024-02-16T10:00:10;49.70;;;26.80;;
61356;SDS011;47227;46.752;23.576;2024-02-16T10:02:40;52.00;;;28.60;;
61356;SDS011;47227;46.752;23.576;2024-02-16T10:05:11;44.50;;;27.00;;
61356;SDS011;47227;46.752;23.576;2024-02-16T10:07:41;54.00;;;27.60;;
61356;SDS011;47227;46.752;23.576;2024-02-16T10:10:20;45.20;;;26.50;;
61356;SDS011;47227;46.752;23.576;2024-02-16T10:12:50;46.60;;;26.10;;
61356;SDS011;47227;46.752;23.576;2024-02-16T10:15:29;49.60;;;25.60;;
61356;SDS011;47227;46.752;23.576;2024-02-16T10:20:34;44.90;;;24.70;;
61356;SDS011;47227;46.752;23.576;2024-02-16T10:23:07;39.50;;;24.40;;
61356;SDS011;47227;46.752;23.576;2024-02-16T10:25:39;43.20;;;21.60;;
61356;SDS011;47227;46.752;23.576;2024-02-16T10:28:09;38.00;;;22.40;;
61356;SDS011;47227;46.752;23.576;2024-02-16T10:30:41;33.70;;;20.70;;
61356;SDS011;47227;46.752;23.576;2024-02-16T10:33:13;33.40;;;20.70;;
61356;SDS011;47227;46.752;23.576;2024-02-16T10:35:42;30.80;;;20.60;;
61356;SDS011;47227;46.752;23.576;2024-02-16T10:38:12;30.50;;;20.20;;
61356;SDS011;47227;46.752;23.576;2024-02-16T10:40:42;36.00;;;19.90;;
61356;SDS011;47227;46.752;23.576;2024-02-16T10:43:12;32.00;;;18.50;;
61356;SDS011;47227;46.752;23.576;2024-02-16T10:45:41;23.40;;;16.30;;
61356;SDS011;47227;46.752;23.576;2024-02-16T10:48:10;29.60;;;16.80;;
61356;SDS011;47227;46.752;23.576;2024-02-16T10:50:39;40.50;;;16.80;;
61356;SDS011;47227;46.752;23.576;2024-02-16T10:53:15;29.20;;;16.20;;
61356;SDS011;47227;46.752;23.576;2024-02-16T10:55:46;31.70;;;18.40;;
61356;SDS011;47227;46.752;23.576;2024-02-16T10:58:16;26.30;;;14.70;;
61356;SDS011;47227;46.752;23.576;2024-02-16T11:00:49;29.50;;;15.30;;
61356;SDS011;47227;46.752;23.576;2024-02-16T11:03:21;17.30;;;12.90;;
61356;SDS011;47227;46.752;23.576;2024-02-16T11:05:55;22.90;;;13.30;;
61356;SDS011;47227;46.752;23.576;2024-02-16T11:08:26;15.90;;;12.50;;
61356;SDS011;47227;46.752;23.576;2024-02-16T11:10:57;17.00;;;12.30;;
61356;SDS011;47227;46.752;23.576;2024-02-16T11:13:28;17.50;;;11.40;;
61356;SDS011;47227;46.752;23.576;2024-02-16T11:16:01;17.90;;;11.60;;
61356;SDS011;47227;46.752;23.576;2024-02-16T11:18:38;29.00;;;15.30;;
61356;SDS011;47227;46.752;23.576;2024-02-16T11:21:11;14.30;;;10.40;;
61356;SDS011;47227;46.752;23.576;2024-02-16T11:23:40;12.70;;;9.70;;
61356;SDS011;47227;46.752;23.576;2024-02-16T11:26:09;15.80;;;10.10;;
61356;SDS011;47227;46.752;23.576;2024-02-16T11:28:42;16.00;;;9.10;;
61356;SDS011;47227;46.752;23.576;2024-02-16T11:31:11;11.40;;;8.50;;
61356;SDS011;47227;46.752;23.576;2024-02-16T11:33:44;14.10;;;8.80;;
61356;SDS011;47227;46.752;23.576;2024-02-16T11:36:13;10.10;;;9.00;;
61356;SDS011;47227;46.752;23.576;2024-02-16T11:38:47;17.60;;;8.90;;
61356;SDS011;47227;46.752;23.576;2024-02-16T11:41:17;10.50;;;7.50;;
61356;SDS011;47227;46.752;23.576;2024-02-16T11:43:45;12.30;;;7.80;;
61356;SDS011;47227;46.752;23.576;2024-02-16T11:46:14;8.40;;;6.90;;
61356;SDS011;47227;46.752;23.576;2024-02-16T11:48:44;8.00;;;6.00;;
61356;SDS011;47227;46.752;23.576;2024-02-16T11:51:14;9.10;;;6.30;;
61356;SDS011;47227;46.752;23.576;2024-02-16T11:53:54;11.40;;;6.70;;
61356;SDS011;47227;46.752;23.576;2024-02-16T11:56:24;7.20;;;5.60;;
61356;SDS011;47227;46.752;23.576;2024-02-16T11:58:53;7.80;;;6.10;;
61356;SDS011;47227;46.752;23.576;2024-02-16T12:01:23;8.30;;;5.60;;
61356;SDS011;47227;46.752;23.576;2024-02-16T12:03:52;9.70;;;6.70;;
61356;SDS011;47227;46.752;23.576;2024-02-16T12:06:21;9.60;;;6.00;;
61356;SDS011;47227;46.752;23.576;2024-02-16T12:08:50;8.50;;;5.70;;
61356;SDS011;47227;46.752;23.576;2024-02-16T12:11:23;9.20;;;5.70;;
61356;SDS011;47227;46.752;23.576;2024-02-16T12:13:52;13.20;;;6.20;;
61356;SDS011;47227;46.752;23.576;2024-02-16T12:16:20;9.00;;;6.10;;
61356;SDS011;47227;46.752;23.576;2024-02-16T12:18:49;11.70;;;6.60;;
61356;SDS011;47227;46.752;23.576;2024-02-16T12:21:18;9.20;;;5.80;;
61356;SDS011;47227;46.752;23.576;2024-02-16T12:23:49;8.00;;;6.60;;
61356;SDS011;47227;46.752;23.576;2024-02-16T12:26:17;11.40;;;6.70;;
61356;SDS011;47227;46.752;23.576;2024-02-16T12:28:46;13.70;;;6.50;;
61356;SDS011;47227;46.752;23.576;2024-02-16T12:31:22;8.60;;;6.20;;
61356;SDS011;47227;46.752;23.576;2024-02-16T12:33:52;8.70;;;6.20;;
61356;SDS011;47227;46.752;23.576;2024-02-16T12:36:21;10.00;;;6.20;;
61356;SDS011;47227;46.752;23.576;2024-02-16T12:38:51;6.50;;;5.90;;
61356;SDS011;47227;46.752;23.576;2024-02-16T12:41:19;8.30;;;5.90;;
61356;SDS011;47227;46.752;23.576;2024-02-16T12:43:48;8.30;;;6.10;;
61356;SDS011;47227;46.752;23.576;2024-02-16T12:46:17;8.70;;;5.80;;
61356;SDS011;47227;46.752;23.576;2024-02-16T12:48:46;8.50;;;5.70;;
61356;SDS011;47227;46.752;23.576;2024-02-16T12:51:17;9.60;;;5.70;;
61356;SDS011;47227;46.752;23.576;2024-02-16T12:53:47;7.90;;;5.30;;
61356;SDS011;47227;46.752;23.576;2024-02-16T12:56:15;7.10;;;5.70;;
61356;SDS011;47227;46.752;23.576;2024-02-16T12:58:44;16.90;;;9.00;;
61356;SDS011;47227;46.752;23.576;2024-02-16T13:01:12;11.00;;;5.00;;
61356;SDS011;47227;46.752;23.576;2024-02-16T13:03:53;8.60;;;5.70;;
61356;SDS011;47227;46.752;23.576;2024-02-16T13:06:21;13.00;;;5.00;;
61356;SDS011;47227;46.752;23.576;2024-02-16T13:08:56;11.10;;;5.30;;
61356;SDS011;47227;46.752;23.576;2024-02-16T13:11:24;7.70;;;4.90;;
61356;SDS011;47227;46.752;23.576;2024-02-16T13:13:53;12.60;;;6.10;;
61356;SDS011;47227;46.752;23.576;2024-02-16T13:16:22;9.40;;;5.30;;
61356;SDS011;47227;46.752;23.576;2024-02-16T13:18:50;14.20;;;5.50;;
61356;SDS011;47227;46.752;23.576;2024-02-16T13:21:19;10.60;;;5.20;;
61356;SDS011;47227;46.752;23.576;2024-02-16T13:23:48;11.80;;;5.20;;
61356;SDS011;47227;46.752;23.576;2024-02-16T13:26:16;9.50;;;5.10;;
61356;SDS011;47227;46.752;23.576;2024-02-16T13:28:45;8.10;;;4.80;;
61356;SDS011;47227;46.752;23.576;2024-02-16T13:31:13;7.00;;;5.10;;
61356;SDS011;47227;46.752;23.576;2024-02-16T13:33:42;11.80;;;5.10;;
61356;SDS011;47227;46.752;23.576;2024-02-16T13:36:10;8.50;;;4.50;;
61356;SDS011;47227;46.752;23.576;2024-02-16T13:38:39;10.00;;;4.70;;
61356;SDS011;47227;46.752;23.576;2024-02-16T13:41:07;6.80;;;4.00;;
61356;SDS011;47227;46.752;23.576;2024-02-16T13:43:36;9.60;;;3.70;;
61356;SDS011;47227;46.752;23.576;2024-02-16T13:46:05;10.10;;;4.30;;
61356;SDS011;47227;46.752;23.576;2024-02-16T13:48:33;8.40;;;4.50;;
61356;SDS011;47227;46.752;23.576;2024-02-16T13:51:05;7.50;;;4.30;;
61356;SDS011;47227;46.752;23.576;2024-02-16T13:53:35;5.90;;;4.40;;
61356;SDS011;47227;46.752;23.576;2024-02-16T13:56:04;10.60;;;4.10;;
61356;SDS011;47227;46.752;23.576;2024-02-16T13:58:34;7.80;;;4.20;;
61356;SDS011;47227;46.752;23.576;2024-02-16T14:01:03;7.00;;;4.40;;
61356;SDS011;47227;46.752;23.576;2024-02-16T14:03:32;6.20;;;4.10;;
61356;SDS011;47227;46.752;23.576;2024-02-16T14:06:02;7.90;;;4.30;;
61356;SDS011;47227;46.752;23.576;2024-02-16T14:08:31;8.70;;;4.30;;
61356;SDS011;47227;46.752;23.576;2024-02-16T14:10:59;11.30;;;3.70;;
61356;SDS011;47227;46.752;23.576;2024-02-16T14:13:29;6.10;;;3.10;;
61356;SDS011;47227;46.752;23.576;2024-02-16T14:15:58;7.60;;;2.90;;
61356;SDS011;47227;46.752;23.576;2024-02-16T14:18:26;5.30;;;3.30;;
61356;SDS011;47227;46.752;23.576;2024-02-16T14:21:02;7.10;;;3.00;;
61356;SDS011;47227;46.752;23.576;2024-02-16T14:23:32;10.00;;;3.60;;
61356;SDS011;47227;46.752;23.576;2024-02-16T14:26:00;5.50;;;3.00;;
61356;SDS011;47227;46.752;23.576;2024-02-16T14:28:29;9.00;;;3.50;;
61356;SDS011;47227;46.752;23.576;2024-02-16T14:30:58;9.10;;;3.80;;
61356;SDS011;47227;46.752;23.576;2024-02-16T14:33:26;6.10;;;2.60;;
61356;SDS011;47227;46.752;23.576;2024-02-16T14:36:02;3.30;;;2.90;;
61356;SDS011;47227;46.752;23.576;2024-02-16T14:38:31;7.80;;;2.90;;